Central Sierra Snow Lab Weather observations

Data are for 10 minute period ending at time listed.
 Day   Time    Incoming  Reflected   Ave.   Ave.    Ave.    Vector  Max.    Ave.    Total    Snow   
  of    of      Solar     Solar      Air    Rel.    Wind    Wind    Wind   Baro.   Precip.   Depth  
Year   Day     Radiation Radiation   Temp.  Humid.  Speed   Dir.    Gust   Press.                   
2016   (PST)    Kw/m2     Kw/m2       F       %      mph     deg.    mph     mb.     in.      in.   
----------------------------------------------------------------------------------------------------
 144    7:40    0.329     999.000     38.3     70     1.4     246     3.8   787.80    8.86   -3.50  
 144    7:50    0.299     999.000     38.2     69     1.5     240     3.5   787.80    8.86   -3.60  
 144    8:00    0.414     999.000     39.0     66     1.8     219     5.0   787.80    8.85   -3.60  
 144    8:10    0.335     999.000     39.8     64     2.0     211     5.8   787.70    8.85   -3.70  
 144    8:20    0.379     999.000     40.1     62     1.5     196     7.4   787.70    8.85   -3.80  
 144    8:30    0.551     999.000     40.7     61     2.1     208     6.2   787.70    8.85   -3.70  
 144    8:40    0.683     999.000     41.6     55     2.2     213     4.6   787.60    8.85   -4.10  
 144    8:50    0.721     999.000     42.3     54     2.6     253     7.9   787.50    8.85   -4.30  
 144    9:00    0.700     999.000     42.7     53     2.8     261     7.5   787.50    8.85   -4.40  
 144    9:10    0.730     999.000     43.2     51     2.9     228     5.6   787.50    8.85   -4.10  
 144    9:20    0.571     999.000     43.7     45     3.2     196     5.7   787.50    8.85   -4.10  
 144    9:30    0.336     999.000     42.6     44     1.9     246     4.6   787.50    8.85   -4.10  
 144    9:40    0.453     999.000     42.9     48     1.8     234     4.0   787.60    8.85   -4.00  
 144    9:50    0.401     999.000     42.8     50     3.1     240     6.6   787.60    8.85   -3.90  
 144   10:00    0.387     999.000     42.6     50     3.1     266     8.2   787.60    8.86   -3.70  
 144   10:10    0.509     999.000     43.1     51     2.5     250     6.5   787.60    8.86   -3.70  
 144   10:20    0.564     999.000     44.3     49     2.2     228     6.1   787.60    8.85   -3.80  
 144   10:30    0.759     999.000     45.6     45     2.8     212     7.4   787.60    8.86   -3.90  
 144   10:40    0.752     999.000     46.5     44     1.9     228     4.9   787.60    8.86   -4.20  
 144   10:50    0.766     999.000     45.5     44     3.2     223     7.1   787.60    8.86   -4.10  
 144   11:00    0.793     999.000     46.0     42     3.2     221     8.6   787.60    8.86   -4.10  
 144   11:10    0.662     999.000     45.9     41     3.0     187     7.5   787.50    8.86   -4.00  
 144   11:20    0.652     999.000     46.3     42     3.6     170     9.7   787.40    8.85   -3.90  
 144   11:30    0.388     999.000     45.3     48     2.4     238     6.7   787.40    8.85   -3.80  
 144   11:40    0.494     999.000     45.0     50     2.5     238     5.8   787.40    8.86   -3.80  
 144   11:50    0.890     999.000     46.8     46     2.7     221     7.9   787.40    8.85   -4.00  
 144   12:00    0.991     999.000     47.4     45     2.4     268     6.1   787.30    8.85   -4.10  
 144   12:10    0.879     999.000     47.5     44     3.1     269     7.0   787.20    8.86   -4.10  
 144   12:20    0.864     999.000     46.9     46     2.6     219     7.0   787.20    8.86   -4.00  
 144   12:30    0.503     999.000     47.6     46     2.6     231     8.1   787.20    8.86   -3.90  
 144   12:40    0.684     999.000     47.3     49     3.5     236     7.5   787.10    8.85   -3.90  
 144   12:50    0.342     999.000     46.3     53     1.8     242     4.7   787.20    8.85   -3.90  
 144   13:00    0.299     999.000     45.8     53     2.9     227     6.1   787.20    8.85   -3.70  
 144   13:10    0.260     999.000     44.8     55     2.2     213     4.5   787.30    8.86   -3.50  
 144   13:20    0.271     999.000     44.3     56     2.7     202     7.0   787.30    8.86   -3.40  
 144   13:30    0.294     999.000     44.1     57     3.0     232     7.9   787.30    8.86   -3.40  
 144   13:40    0.288     999.000     44.2     59     2.8     254     8.0   787.30    8.85   -3.50  
 144   13:50    0.289     999.000     43.9     60     3.2     269     8.9   787.30    8.86   -3.40  
 144   14:00    0.241     999.000     44.1     61     1.9     239     6.9   787.40    8.86   -3.40  
 144   14:10    0.232     999.000     43.2     62     3.6     260    13.1   787.40    8.86   -3.20  
 144   14:20    0.305     999.000     43.1     63     2.8     252     7.8   787.40    8.85   -3.20  
 144   14:30    0.285     999.000     43.4     62     3.1     260     9.0   787.40    8.86   -3.30  
 144   14:40    0.192     999.000     42.9     66     2.8     195     5.6   787.30    8.86   -3.20  
 144   14:50    0.222     999.000     42.4     69     2.0     226     9.3   787.30    8.85   -3.20  
 144   15:00    0.196     999.000     42.4     70     2.9     268     7.4   787.30    8.85   -3.20  
 144   15:10    0.270     999.000     42.3     71     1.3     249     6.0   787.20    8.86   -3.30  
 144   15:20    0.652     999.000     43.6     69     3.1     237     6.9   787.20    8.86   -3.30  
 144   15:30    0.288     999.000     43.5     69     3.0     223     7.2   787.20    8.86   -3.30  
 144   15:40    0.169     999.000     41.3     76     1.8     222     5.6   787.20    8.85   -3.30  
 144   15:50    0.165     999.000     40.4     78     3.4     236     9.3   787.20    8.86   -3.20  
 144   16:00    0.168     999.000     39.7     82     2.1     230     5.1   787.20    8.86   -3.20  
 144   16:10    0.175     999.000     39.7     82     2.0     219     5.3   787.20    8.86   -3.20  
 144   16:20    0.210     999.000     39.9     81     2.2     223     4.6   787.10    8.86   -3.10  
 144   16:30    0.196     999.000     40.6     80     1.7     214     4.2   787.00    8.86   -3.20  
 144   16:40    0.117     999.000     40.6     81     1.9     213     6.4   787.00    8.86   -3.10  
 144   16:50    0.038     999.000     39.2     86     2.7     247    10.0   787.00    8.86   -3.10  
 144   17:00    0.036     999.000     37.7     95     2.0     227     5.8   787.10    8.86   -3.00  
 144   17:10    0.037     999.000     36.9    100     1.9     212     6.2   787.00    8.86   -3.00  
 144   17:20    0.046     999.000     36.5    100     2.4     239     8.1   787.10    8.86   -3.00  
 144   17:30    0.053     999.000     36.5    100     2.2     300     6.1   787.00    8.86   -3.00  
 144   17:40    0.065     999.000     36.6    100     2.0     280     4.3   787.00    8.87   -3.00  
 144   17:50    0.063     999.000     36.8    100     1.6     275     4.9   786.90    8.86   -3.00  
 144   18:00    0.067     999.000     36.9    100     2.1     285     4.6   786.90    8.86   -3.00  
 144   18:10    0.052     999.000     36.9     99     1.2     312     6.2   786.90    8.86   -3.00  
 144   18:20    0.051     999.000     37.1     96     0.8     228     3.1   786.90    8.87   -3.10  
 144   18:30    0.037     999.000     37.2     99     0.5     245     2.7   786.90    8.86   -3.00  
 144   18:40    0.023     999.000     37.1     95     1.4     210     3.2   786.80    8.86   -3.00  
 144   18:50    0.015     999.000     37.1     99     0.1     217     1.2   786.90    8.86   -3.10  
 144   19:00    0.008     999.000     37.1    100     0.3     189     1.4   786.90    8.87   -3.00  
 144   19:10    0.002     999.000     37.0    100     0.1     201     1.2   786.90    8.87   -3.00  
 144   19:20    0.000     999.000     36.8    104     0.5     178     2.5   786.90    8.86   -3.00  
 144   19:30    0.000     999.000     36.4    110     1.2     191     2.7   786.90    8.87   -3.10  
 144   19:40    0.000     999.000     36.1    111     0.4     209     1.7   786.90    8.87   -3.10  
 144   19:50    0.000     999.000     36.0    112     0.1     205     1.2   786.90    8.87   -3.10  
 144   20:00    0.000     999.000     36.0    112     0.0       0     0.0   786.90    8.87   -3.10  
 144   20:10    0.000     999.000     35.9    112     0.3     177     1.5   787.00    8.87   -3.10  
 144   20:20    0.000     999.000     35.9    113     0.3     206     2.0   787.00    8.87   -3.10  
 144   20:30    0.000     999.000     35.9    114     0.1     254     1.3   787.20    8.88   -3.00  
 144   20:40    0.000     999.000     35.9    114     0.0       0     0.0   787.20    8.87   -3.10  
 144   20:50    0.000     999.000     35.9    114     0.0       0     0.0   787.20    8.87   -3.10  
 144   21:00    0.000     999.000     36.0    114     0.0       0     0.0   787.20    8.87   -3.10  
 144   21:10    0.000     999.000     35.9    114     0.0       0     0.0   787.20    8.87   -3.10  
 144   21:20    0.000     999.000     35.9    114     0.0       0     0.0   787.20    8.87   -3.10  
 144   21:30    0.000     999.000     35.8    114     0.0       0     0.0   787.20    8.87   -3.10  
 144   21:40    0.000     999.000     35.8    114     0.0       0     0.0   787.20    8.87   -3.10  
 144   21:50    0.000     999.000     35.7    114     0.3     131     1.6   787.10    8.87   -3.10  
 144   22:00    0.000     999.000     35.6    114     0.0       0     0.0   787.00    8.87   -3.10  
 144   22:10    0.000     999.000     35.6    114     0.0       0     0.0   787.00    8.87   -3.10  
 144   22:20    0.000     999.000     35.5    114     0.0       0     0.0   786.90    8.87   -3.00  
 144   22:30    0.000     999.000     35.3    114     0.0       0     0.0   786.90    8.87   -3.10  
 144   22:40    0.000     999.000     35.3    115     0.4     154     1.6   786.90    8.87   -3.00  
 144   22:50    0.000     999.000     35.4    115     1.4     161     2.6   786.80    8.88   -3.00  
 144   23:00    0.000     999.000     35.4    115     1.0     146     1.5   786.90    8.87   -3.00  
 144   23:10    0.000     999.000     35.4    116     0.1     120     1.1   786.90    8.87   -3.10  
 144   23:20    0.000     999.000     35.4    116     0.0       0     0.0   786.90    8.87   -3.10  
 144   23:30    0.000     999.000     35.4    116     0.0       0     0.0   786.90    8.87   -3.00  
 144   23:40    0.000     999.000     35.3    116     0.0       0     0.0   786.90    8.87   -3.00  
 144   23:50    0.000     999.000     35.2    115     0.1      20     1.7   786.80    8.87   -3.00  
 145    0:00    0.000     999.000     35.2    115     0.0       0     0.0   786.80    8.88   -3.00  
 145    0:10    0.000     999.000     35.2    115     0.0       0     0.0   786.80    8.87   -3.00  
 145    0:20    0.000     999.000     35.1    115     0.1      24     1.4   786.70    8.87   -3.00  
 145    0:30    0.000     999.000     35.0    115     0.0       0     0.0   786.60    8.87   -3.00  
 145    0:40    0.000     999.000     35.0    115     0.0       0     0.0   786.60    8.87   -3.00  
 145    0:50    0.000     999.000     35.1    115     0.0       0     0.0   786.60    8.87   -3.00  
 145    1:00    0.000     999.000     35.1    116     0.0       0     0.0   786.60    8.87   -3.00  
 145    1:10    0.000     999.000     35.1    116     0.0       0     0.0   786.50    8.87   -3.00  
 145    1:20    0.000     999.000     35.1    116     0.1     204     1.4   786.50    8.87   -3.00  
 145    1:30    0.000     999.000     35.0    115     0.2     237     1.9   786.40    8.87   -3.00  
 145    1:40    0.000     999.000     35.0    115     0.5     179     2.1   786.40    8.87   -3.00  
 145    1:50    0.000     999.000     34.9    115     0.3     184     1.9   786.40    8.87   -3.00  
 145    2:00    0.000     999.000     34.9    115     0.0       0     0.0   786.30    8.87   -3.00  
 145    2:10    0.000     999.000     34.9    115     0.0       0     0.0   786.30    8.88   -3.00  
 145    2:20    0.000     999.000     34.9    115     0.4     330     1.6   786.30    8.87   -3.00  
 145    2:30    0.000     999.000     34.8    116     0.3     108     2.2   786.30    8.87   -3.00  
 145    2:40    0.000     999.000     34.9    116     0.0       0     0.0   786.20    8.87   -3.00  
 145    2:50    0.000     999.000     34.9    115     0.2     298     1.7   786.20    8.88   -3.00  
 145    3:00    0.000     999.000     34.9    115     0.1     298     1.5   786.10    8.87   -3.00  
 145    3:10    0.000     999.000     34.8    115     0.0       0     0.0   786.10    8.87   -2.90  
 145    3:20    0.000     999.000     34.7    115     0.9      31     2.5   786.20    8.87   -2.90  
 145    3:30    0.000     999.000     34.6    115     1.0      26     2.9   786.10    8.87   -2.80  
 145    3:40    0.000     999.000     34.7    115     1.0      32     2.2   786.00    8.87   -2.80  
 145    3:50    0.000     999.000     34.7    115     0.8      31     2.3   786.00    8.87   -2.80  
 145    4:00    0.000     999.000     34.7    115     0.1      61     1.4   786.00    8.87   -2.90  
 145    4:10    0.000     999.000     34.7    115     0.0      23     1.1   786.00    8.87   -2.90  
 145    4:20    0.000     999.000     34.8    115     0.4      23     1.5   786.00    8.87   -2.90  
 145    4:30    0.000     999.000     34.7    115     0.0       0     0.0   786.00    8.87   -2.90  
 145    4:40    0.001     999.000     34.6    115     0.0       0     0.0   786.00    8.87   -2.90  
 145    4:50    0.002     999.000     34.6    115     0.0       0     0.0   786.00    8.87   -2.80  
 145    5:00    0.005     999.000     34.6    115     0.1      23     1.6   786.10    8.87   -2.80  
 145    5:10    0.009     999.000     34.6    115     0.8      26     1.9   786.10    8.87   -2.80  
 145    5:20    0.015     999.000     34.6    115     0.4      88     1.8   786.10    8.87   -2.90  
 145    5:30    0.024     999.000     34.8    115     0.0       0     0.0   786.20    8.87   -3.00  
 145    5:40    0.032     999.000     34.9    115     0.2     349     1.1   786.30    8.88   -3.00  
 145    5:50    0.040     999.000     35.3    115     0.0       0     0.0   786.40    8.87   -3.00  
 145    6:00    0.053     999.000     35.7    115     0.0       0     0.0   786.40    8.87   -3.20  
 145    6:10    0.065     999.000     36.1    115     0.2     328     1.5   786.50    8.88   -3.20  
 145    6:20    0.076     999.000     36.5    107     0.3      27     2.0   786.60    8.88   -3.20  
 145    6:30    0.096     999.000     37.0     96     0.4     144     2.2   786.60    8.87   -3.30  
 145    6:40    0.098     999.000     37.5     91     1.6     104     3.9   786.70    8.88   -3.10  
 145    6:50    0.095     999.000     37.8     88     1.0      55     4.1   786.80    8.87   -3.20  
 145    7:00    0.111     999.000     38.0     88     1.0     334     2.9   786.90    8.87   -3.20  
 145    7:10    0.112     999.000     38.2     87     0.6     276     2.3   786.90    8.87   -3.20  
 145    7:20    0.115     999.000     38.6     87     0.4     266     1.7   787.00    8.88   -3.30  
 145    7:30    0.140     999.000     38.9     86     0.5     286     1.9   787.00    8.87   -3.30  

Return to Central Sierra Snow Lab graphs page.


Western Regional Climate Center,wrcc@dri.edu